sensor_id;sensor_type;location;lat;lon;timestamp;P1;P2;P0
62631;PMS5003;48703;51.248;-0.546;2023-05-16T00:00:43;11.23;10.59;
62631;PMS5003;48703;51.248;-0.546;2023-05-16T00:03:44;9.93;9.33;
62631;PMS5003;48703;51.248;-0.546;2023-05-16T00:06:46;10.17;9.81;
62631;PMS5003;48703;51.248;-0.546;2023-05-16T00:09:48;8.57;8.13;
62631;PMS5003;48703;51.248;-0.546;2023-05-16T00:12:49;9.41;9.41;
62631;PMS5003;48703;51.248;-0.546;2023-05-16T00:15:51;9.14;8.66;
62631;PMS5003;48703;51.248;-0.546;2023-05-16T00:18:53;11.13;10.01;
62631;PMS5003;48703;51.248;-0.546;2023-05-16T00:21:54;9.07;8.77;
62631;PMS5003;48703;51.248;-0.546;2023-05-16T00:24:56;9.49;9.07;
62631;PMS5003;48703;51.248;-0.546;2023-05-16T00:27:57;8.33;7.67;
62631;PMS5003;48703;51.248;-0.546;2023-05-16T00:30:59;10.54;9.86;
62631;PMS5003;48703;51.248;-0.546;2023-05-16T00:34:01;10.48;10.43;
62631;PMS5003;48703;51.248;-0.546;2023-05-16T00:37:02;10.81;9.87;
62631;PMS5003;48703;51.248;-0.546;2023-05-16T00:40:04;10.34;9.17;
62631;PMS5003;48703;51.248;-0.546;2023-05-16T00:43:05;10.89;9.59;
62631;PMS5003;48703;51.248;-0.546;2023-05-16T00:46:07;9.83;9.44;
62631;PMS5003;48703;51.248;-0.546;2023-05-16T00:49:09;8.81;8.03;
62631;PMS5003;48703;51.248;-0.546;2023-05-16T00:52:10;10.11;9.07;
62631;PMS5003;48703;51.248;-0.546;2023-05-16T00:55:12;7.64;7.37;
62631;PMS5003;48703;51.248;-0.546;2023-05-16T00:58:14;9.21;8.73;
62631;PMS5003;48703;51.248;-0.546;2023-05-16T01:01:15;10.80;8.99;
62631;PMS5003;48703;51.248;-0.546;2023-05-16T01:04:17;8.87;8.07;
62631;PMS5003;48703;51.248;-0.546;2023-05-16T01:07:18;9.53;8.79;
62631;PMS5003;48703;51.248;-0.546;2023-05-16T01:10:20;9.42;8.84;
62631;PMS5003;48703;51.248;-0.546;2023-05-16T01:13:23;9.14;8.06;
62631;PMS5003;48703;51.248;-0.546;2023-05-16T01:16:25;7.01;6.21;
62631;PMS5003;48703;51.248;-0.546;2023-05-16T01:19:30;9.61;8.59;
62631;PMS5003;48703;51.248;-0.546;2023-05-16T01:22:28;7.90;7.90;
62631;PMS5003;48703;51.248;-0.546;2023-05-16T01:25:31;6.33;5.93;
62631;PMS5003;48703;51.248;-0.546;2023-05-16T01:28:30;7.39;6.83;
62631;PMS5003;48703;51.248;-0.546;2023-05-16T01:31:32;8.36;7.11;
62631;PMS5003;48703;51.248;-0.546;2023-05-16T01:34:34;7.03;6.71;
62631;PMS5003;48703;51.248;-0.546;2023-05-16T01:37:37;6.29;5.80;
62631;PMS5003;48703;51.248;-0.546;2023-05-16T01:40:37;7.03;6.51;
62631;PMS5003;48703;51.248;-0.546;2023-05-16T01:43:40;6.97;6.29;
62631;PMS5003;48703;51.248;-0.546;2023-05-16T01:46:40;5.87;5.87;
62631;PMS5003;48703;51.248;-0.546;2023-05-16T01:49:42;5.79;5.19;
62631;PMS5003;48703;51.248;-0.546;2023-05-16T01:52:44;5.33;5.16;
62631;PMS5003;48703;51.248;-0.546;2023-05-16T01:55:46;4.66;4.13;
62631;PMS5003;48703;51.248;-0.546;2023-05-16T01:58:46;4.51;4.17;
62631;PMS5003;48703;51.248;-0.546;2023-05-16T02:01:48;5.67;4.03;
62631;PMS5003;48703;51.248;-0.546;2023-05-16T02:04:49;4.74;4.31;
62631;PMS5003;48703;51.248;-0.546;2023-05-16T02:07:51;4.41;4.41;
62631;PMS5003;48703;51.248;-0.546;2023-05-16T02:10:53;4.73;4.73;
62631;PMS5003;48703;51.248;-0.546;2023-05-16T02:13:54;5.06;4.46;
62631;PMS5003;48703;51.248;-0.546;2023-05-16T02:16:56;5.89;5.23;
62631;PMS5003;48703;51.248;-0.546;2023-05-16T02:19:58;6.30;4.76;
62631;PMS5003;48703;51.248;-0.546;2023-05-16T02:23:00;5.76;4.77;
62631;PMS5003;48703;51.248;-0.546;2023-05-16T02:26:02;4.17;3.74;
62631;PMS5003;48703;51.248;-0.546;2023-05-16T02:29:04;5.76;5.40;
62631;PMS5003;48703;51.248;-0.546;2023-05-16T02:32:05;6.06;4.87;
62631;PMS5003;48703;51.248;-0.546;2023-05-16T02:35:07;7.27;5.84;
62631;PMS5003;48703;51.248;-0.546;2023-05-16T02:38:08;6.46;5.60;
62631;PMS5003;48703;51.248;-0.546;2023-05-16T02:41:10;4.53;4.40;
62631;PMS5003;48703;51.248;-0.546;2023-05-16T02:44:11;6.28;5.61;
62631;PMS5003;48703;51.248;-0.546;2023-05-16T02:47:13;5.86;5.19;
62631;PMS5003;48703;51.248;-0.546;2023-05-16T02:50:15;5.79;4.96;
62631;PMS5003;48703;51.248;-0.546;2023-05-16T02:53:16;4.37;4.37;
62631;PMS5003;48703;51.248;-0.546;2023-05-16T02:56:18;4.43;4.29;
62631;PMS5003;48703;51.248;-0.546;2023-05-16T02:59:20;4.67;4.57;
62631;PMS5003;48703;51.248;-0.546;2023-05-16T03:02:22;5.31;4.37;
62631;PMS5003;48703;51.248;-0.546;2023-05-16T03:05:23;5.51;4.19;
62631;PMS5003;48703;51.248;-0.546;2023-05-16T03:08:25;4.30;4.30;
62631;PMS5003;48703;51.248;-0.546;2023-05-16T03:11:27;6.11;5.07;
62631;PMS5003;48703;51.248;-0.546;2023-05-16T03:14:28;5.33;5.33;
62631;PMS5003;48703;51.248;-0.546;2023-05-16T03:17:30;5.37;5.37;
62631;PMS5003;48703;51.248;-0.546;2023-05-16T03:20:31;6.06;5.91;
62631;PMS5003;48703;51.248;-0.546;2023-05-16T03:23:33;5.80;4.87;
62631;PMS5003;48703;51.248;-0.546;2023-05-16T03:26:35;6.40;4.97;
62631;PMS5003;48703;51.248;-0.546;2023-05-16T03:29:36;5.44;5.14;
62631;PMS5003;48703;51.248;-0.546;2023-05-16T03:32:38;5.41;5.41;
62631;PMS5003;48703;51.248;-0.546;2023-05-16T03:35:39;5.00;4.36;
62631;PMS5003;48703;51.248;-0.546;2023-05-16T03:38:41;5.73;5.04;
62631;PMS5003;48703;51.248;-0.546;2023-05-16T03:41:43;6.21;5.61;
62631;PMS5003;48703;51.248;-0.546;2023-05-16T03:44:45;5.27;4.97;
62631;PMS5003;48703;51.248;-0.546;2023-05-16T03:47:47;4.96;4.19;
62631;PMS5003;48703;51.248;-0.546;2023-05-16T03:50:48;6.21;5.79;
62631;PMS5003;48703;51.248;-0.546;2023-05-16T03:53:50;6.59;5.59;
62631;PMS5003;48703;51.248;-0.546;2023-05-16T03:56:51;4.97;4.97;
62631;PMS5003;48703;51.248;-0.546;2023-05-16T03:59:53;6.43;5.17;
62631;PMS5003;48703;51.248;-0.546;2023-05-16T04:02:55;4.69;4.33;
62631;PMS5003;48703;51.248;-0.546;2023-05-16T04:05:57;6.49;6.26;
62631;PMS5003;48703;51.248;-0.546;2023-05-16T04:08:58;7.79;5.86;
62631;PMS5003;48703;51.248;-0.546;2023-05-16T04:12:00;6.41;5.81;
62631;PMS5003;48703;51.248;-0.546;2023-05-16T04:15:02;6.57;5.33;
62631;PMS5003;48703;51.248;-0.546;2023-05-16T04:18:04;5.20;5.14;
62631;PMS5003;48703;51.248;-0.546;2023-05-16T04:21:05;5.73;5.59;
62631;PMS5003;48703;51.248;-0.546;2023-05-16T04:24:07;4.46;4.07;
62631;PMS5003;48703;51.248;-0.546;2023-05-16T04:27:09;4.67;4.67;
62631;PMS5003;48703;51.248;-0.546;2023-05-16T04:30:11;5.79;5.01;
62631;PMS5003;48703;51.248;-0.546;2023-05-16T04:33:12;5.33;5.33;
62631;PMS5003;48703;51.248;-0.546;2023-05-16T04:36:14;6.44;6.06;
62631;PMS5003;48703;51.248;-0.546;2023-05-16T04:39:16;7.13;5.67;
62631;PMS5003;48703;51.248;-0.546;2023-05-16T04:42:17;5.36;4.79;
62631;PMS5003;48703;51.248;-0.546;2023-05-16T04:45:19;5.94;5.73;
62631;PMS5003;48703;51.248;-0.546;2023-05-16T04:48:21;6.31;5.84;
62631;PMS5003;48703;51.248;-0.546;2023-05-16T04:51:23;5.83;5.53;
62631;PMS5003;48703;51.248;-0.546;2023-05-16T04:54:24;5.09;4.87;
62631;PMS5003;48703;51.248;-0.546;2023-05-16T04:57:26;6.20;5.29;
62631;PMS5003;48703;51.248;-0.546;2023-05-16T05:00:28;6.63;6.03;
62631;PMS5003;48703;51.248;-0.546;2023-05-16T05:03:30;6.17;5.96;
62631;PMS5003;48703;51.248;-0.546;2023-05-16T05:06:31;6.31;5.66;
62631;PMS5003;48703;51.248;-0.546;2023-05-16T05:09:33;5.86;5.76;
62631;PMS5003;48703;51.248;-0.546;2023-05-16T05:12:35;5.44;5.44;
62631;PMS5003;48703;51.248;-0.546;2023-05-16T05:15:36;6.04;5.61;
62631;PMS5003;48703;51.248;-0.546;2023-05-16T05:18:38;6.14;6.10;
62631;PMS5003;48703;51.248;-0.546;2023-05-16T05:21:40;8.24;6.51;
62631;PMS5003;48703;51.248;-0.546;2023-05-16T05:24:42;8.17;7.39;
62631;PMS5003;48703;51.248;-0.546;2023-05-16T05:27:43;7.19;6.03;
62631;PMS5003;48703;51.248;-0.546;2023-05-16T05:30:45;7.38;6.90;
62631;PMS5003;48703;51.248;-0.546;2023-05-16T05:33:47;6.74;6.19;
62631;PMS5003;48703;51.248;-0.546;2023-05-16T05:36:48;8.14;7.07;
62631;PMS5003;48703;51.248;-0.546;2023-05-16T05:39:50;5.47;5.04;
62631;PMS5003;48703;51.248;-0.546;2023-05-16T05:42:52;6.36;5.71;
62631;PMS5003;48703;51.248;-0.546;2023-05-16T05:45:54;6.50;6.20;
62631;PMS5003;48703;51.248;-0.546;2023-05-16T05:48:55;5.97;5.83;
62631;PMS5003;48703;51.248;-0.546;2023-05-16T05:51:57;5.41;4.43;
62631;PMS5003;48703;51.248;-0.546;2023-05-16T05:54:58;6.74;5.84;
62631;PMS5003;48703;51.248;-0.546;2023-05-16T05:58:01;6.10;5.51;
62631;PMS5003;48703;51.248;-0.546;2023-05-16T06:01:03;6.04;5.80;
62631;PMS5003;48703;51.248;-0.546;2023-05-16T06:04:04;5.34;4.83;
62631;PMS5003;48703;51.248;-0.546;2023-05-16T06:07:06;5.81;5.66;
62631;PMS5003;48703;51.248;-0.546;2023-05-16T06:10:08;6.50;4.91;
62631;PMS5003;48703;51.248;-0.546;2023-05-16T06:13:09;5.66;4.76;
62631;PMS5003;48703;51.248;-0.546;2023-05-16T06:16:11;7.07;5.60;
62631;PMS5003;48703;51.248;-0.546;2023-05-16T06:19:13;5.80;4.49;
62631;PMS5003;48703;51.248;-0.546;2023-05-16T06:22:15;6.79;5.39;
62631;PMS5003;48703;51.248;-0.546;2023-05-16T06:25:16;5.69;5.19;
62631;PMS5003;48703;51.248;-0.546;2023-05-16T06:28:18;6.31;5.16;
62631;PMS5003;48703;51.248;-0.546;2023-05-16T06:31:19;5.17;5.00;
62631;PMS5003;48703;51.248;-0.546;2023-05-16T06:34:21;4.74;3.93;
62631;PMS5003;48703;51.248;-0.546;2023-05-16T06:37:23;5.10;3.69;
62631;PMS5003;48703;51.248;-0.546;2023-05-16T06:40:25;5.69;5.30;
62631;PMS5003;48703;51.248;-0.546;2023-05-16T06:43:26;4.07;3.43;
62631;PMS5003;48703;51.248;-0.546;2023-05-16T06:46:28;4.80;3.73;
62631;PMS5003;48703;51.248;-0.546;2023-05-16T06:49:30;4.94;4.47;
62631;PMS5003;48703;51.248;-0.546;2023-05-16T06:52:32;2.70;2.43;
62631;PMS5003;48703;51.248;-0.546;2023-05-16T06:55:33;3.33;3.03;
62631;PMS5003;48703;51.248;-0.546;2023-05-16T06:58:35;2.83;2.57;
62631;PMS5003;48703;51.248;-0.546;2023-05-16T07:01:37;4.40;2.73;
62631;PMS5003;48703;51.248;-0.546;2023-05-16T07:04:38;3.74;3.04;
62631;PMS5003;48703;51.248;-0.546;2023-05-16T07:07:40;3.69;3.33;
62631;PMS5003;48703;51.248;-0.546;2023-05-16T07:10:42;2.19;2.00;
62631;PMS5003;48703;51.248;-0.546;2023-05-16T07:13:43;3.80;2.59;
62631;PMS5003;48703;51.248;-0.546;2023-05-16T07:16:45;3.39;3.26;
62631;PMS5003;48703;51.248;-0.546;2023-05-16T07:19:48;3.21;2.34;
62631;PMS5003;48703;51.248;-0.546;2023-05-16T07:22:49;1.94;1.94;
62631;PMS5003;48703;51.248;-0.546;2023-05-16T07:25:50;3.39;2.87;
62631;PMS5003;48703;51.248;-0.546;2023-05-16T07:28:52;3.51;2.96;
62631;PMS5003;48703;51.248;-0.546;2023-05-16T07:31:54;3.07;2.76;
62631;PMS5003;48703;51.248;-0.546;2023-05-16T07:34:55;4.63;4.31;
62631;PMS5003;48703;51.248;-0.546;2023-05-16T07:37:57;3.61;2.44;
62631;PMS5003;48703;51.248;-0.546;2023-05-16T07:40:59;3.93;2.63;
62631;PMS5003;48703;51.248;-0.546;2023-05-16T07:44:00;3.23;1.96;
62631;PMS5003;48703;51.248;-0.546;2023-05-16T07:47:02;3.33;2.94;
62631;PMS5003;48703;51.248;-0.546;2023-05-16T07:50:04;3.40;2.23;
62631;PMS5003;48703;51.248;-0.546;2023-05-16T07:53:05;3.96;3.17;
62631;PMS5003;48703;51.248;-0.546;2023-05-16T07:56:07;2.30;1.97;
62631;PMS5003;48703;51.248;-0.546;2023-05-16T07:59:09;3.47;2.79;
62631;PMS5003;48703;51.248;-0.546;2023-05-16T08:02:10;3.76;2.17;
62631;PMS5003;48703;51.248;-0.546;2023-05-16T08:05:12;3.56;2.11;
62631;PMS5003;48703;51.248;-0.546;2023-05-16T08:08:14;2.76;2.07;
62631;PMS5003;48703;51.248;-0.546;2023-05-16T08:11:15;3.36;2.69;
62631;PMS5003;48703;51.248;-0.546;2023-05-16T08:14:17;3.39;2.49;
62631;PMS5003;48703;51.248;-0.546;2023-05-16T08:17:19;4.96;3.51;
62631;PMS5003;48703;51.248;-0.546;2023-05-16T08:20:20;3.56;2.31;
62631;PMS5003;48703;51.248;-0.546;2023-05-16T08:23:22;2.67;2.27;
62631;PMS5003;48703;51.248;-0.546;2023-05-16T08:26:24;2.86;1.96;
62631;PMS5003;48703;51.248;-0.546;2023-05-16T08:29:25;3.20;2.41;
62631;PMS5003;48703;51.248;-0.546;2023-05-16T08:32:27;2.66;2.07;
62631;PMS5003;48703;51.248;-0.546;2023-05-16T08:35:29;2.20;2.20;
62631;PMS5003;48703;51.248;-0.546;2023-05-16T08:38:30;3.64;2.53;
62631;PMS5003;48703;51.248;-0.546;2023-05-16T08:41:32;2.41;1.77;
62631;PMS5003;48703;51.248;-0.546;2023-05-16T08:44:33;3.23;2.33;
62631;PMS5003;48703;51.248;-0.546;2023-05-16T08:47:35;2.56;2.50;
62631;PMS5003;48703;51.248;-0.546;2023-05-16T08:50:37;3.17;2.73;
62631;PMS5003;48703;51.248;-0.546;2023-05-16T08:53:39;2.67;1.93;
62631;PMS5003;48703;51.248;-0.546;2023-05-16T08:56:40;2.07;2.07;
62631;PMS5003;48703;51.248;-0.546;2023-05-16T08:59:42;2.64;1.96;
62631;PMS5003;48703;51.248;-0.546;2023-05-16T09:02:44;2.10;1.89;
62631;PMS5003;48703;51.248;-0.546;2023-05-16T09:05:45;2.10;1.67;
62631;PMS5003;48703;51.248;-0.546;2023-05-16T09:08:46;2.73;1.64;
62631;PMS5003;48703;51.248;-0.546;2023-05-16T09:11:48;2.83;1.29;
62631;PMS5003;48703;51.248;-0.546;2023-05-16T09:14:49;2.41;1.91;
62631;PMS5003;48703;51.248;-0.546;2023-05-16T09:17:51;2.47;2.47;
62631;PMS5003;48703;51.248;-0.546;2023-05-16T09:20:53;2.53;1.86;
62631;PMS5003;48703;51.248;-0.546;2023-05-16T09:23:54;2.27;1.94;
62631;PMS5003;48703;51.248;-0.546;2023-05-16T09:26:56;2.47;2.30;
62631;PMS5003;48703;51.248;-0.546;2023-05-16T09:29:58;1.46;1.06;
62631;PMS5003;48703;51.248;-0.546;2023-05-16T09:32:59;1.61;1.61;
62631;PMS5003;48703;51.248;-0.546;2023-05-16T09:36:01;2.16;1.89;
62631;PMS5003;48703;51.248;-0.546;2023-05-16T09:39:02;2.06;1.44;
62631;PMS5003;48703;51.248;-0.546;2023-05-16T09:42:04;2.33;1.70;
62631;PMS5003;48703;51.248;-0.546;2023-05-16T09:45:06;2.86;2.50;
62631;PMS5003;48703;51.248;-0.546;2023-05-16T09:48:08;2.63;1.79;
62631;PMS5003;48703;51.248;-0.546;2023-05-16T09:51:08;1.77;1.57;
62631;PMS5003;48703;51.248;-0.546;2023-05-16T09:54:10;1.54;0.94;
62631;PMS5003;48703;51.248;-0.546;2023-05-16T09:57:12;1.24;1.24;
62631;PMS5003;48703;51.248;-0.546;2023-05-16T10:00:14;1.24;1.24;
62631;PMS5003;48703;51.248;-0.546;2023-05-16T10:03:15;2.14;1.36;
62631;PMS5003;48703;51.248;-0.546;2023-05-16T10:06:16;1.11;1.03;
62631;PMS5003;48703;51.248;-0.546;2023-05-16T10:09:18;1.51;1.51;
62631;PMS5003;48703;51.248;-0.546;2023-05-16T10:12:34;0.56;0.56;
62631;PMS5003;48703;51.248;-0.546;2023-05-16T10:15:21;1.13;0.96;
62631;PMS5003;48703;51.248;-0.546;2023-05-16T10:18:24;1.09;1.09;
62631;PMS5003;48703;51.248;-0.546;2023-05-16T10:21:24;2.04;1.49;
62631;PMS5003;48703;51.248;-0.546;2023-05-16T10:24:28;1.60;1.13;
62631;PMS5003;48703;51.248;-0.546;2023-05-16T10:27:27;1.60;1.60;
62631;PMS5003;48703;51.248;-0.546;2023-05-16T10:30:29;1.54;1.11;
62631;PMS5003;48703;51.248;-0.546;2023-05-16T10:33:30;1.49;0.84;
62631;PMS5003;48703;51.248;-0.546;2023-05-16T10:36:32;2.54;2.29;
62631;PMS5003;48703;51.248;-0.546;2023-05-16T10:39:33;2.74;1.63;
62631;PMS5003;48703;51.248;-0.546;2023-05-16T10:42:35;1.30;0.96;
62631;PMS5003;48703;51.248;-0.546;2023-05-16T10:45:38;0.96;0.96;
62631;PMS5003;48703;51.248;-0.546;2023-05-16T10:48:38;1.84;1.84;
62631;PMS5003;48703;51.248;-0.546;2023-05-16T10:51:39;1.29;1.29;
62631;PMS5003;48703;51.248;-0.546;2023-05-16T10:54:41;1.51;1.51;
62631;PMS5003;48703;51.248;-0.546;2023-05-16T10:57:43;2.07;2.07;
62631;PMS5003;48703;51.248;-0.546;2023-05-16T11:00:44;2.51;0.97;
62631;PMS5003;48703;51.248;-0.546;2023-05-16T11:04:04;2.59;1.77;
62631;PMS5003;48703;51.248;-0.546;2023-05-16T11:06:49;1.99;1.93;
62631;PMS5003;48703;51.248;-0.546;2023-05-16T11:09:52;1.86;1.86;
62631;PMS5003;48703;51.248;-0.546;2023-05-16T11:12:50;1.91;1.63;
62631;PMS5003;48703;51.248;-0.546;2023-05-16T11:15:52;1.97;1.97;
62631;PMS5003;48703;51.248;-0.546;2023-05-16T11:18:53;3.16;1.69;
62631;PMS5003;48703;51.248;-0.546;2023-05-16T11:22:49;1.67;1.34;
62631;PMS5003;48703;51.248;-0.546;2023-05-16T11:25:57;2.50;2.06;
62631;PMS5003;48703;51.248;-0.546;2023-05-16T11:28:58;2.40;1.74;
62631;PMS5003;48703;51.248;-0.546;2023-05-16T11:32:00;2.80;2.03;
62631;PMS5003;48703;51.248;-0.546;2023-05-16T11:35:01;1.76;1.16;
62631;PMS5003;48703;51.248;-0.546;2023-05-16T11:38:03;1.27;1.27;
62631;PMS5003;48703;51.248;-0.546;2023-05-16T11:41:05;1.59;1.29;
62631;PMS5003;48703;51.248;-0.546;2023-05-16T11:44:06;1.76;1.76;
62631;PMS5003;48703;51.248;-0.546;2023-05-16T11:47:07;2.86;2.86;
62631;PMS5003;48703;51.248;-0.546;2023-05-16T11:50:10;2.00;2.00;
62631;PMS5003;48703;51.248;-0.546;2023-05-16T11:53:11;1.94;1.44;
62631;PMS5003;48703;51.248;-0.546;2023-05-16T11:56:12;1.97;1.97;
62631;PMS5003;48703;51.248;-0.546;2023-05-16T11:59:13;1.59;1.59;
62631;PMS5003;48703;51.248;-0.546;2023-05-16T12:02:15;3.35;2.80;
62631;PMS5003;48703;51.248;-0.546;2023-05-16T12:05:17;2.47;2.47;
62631;PMS5003;48703;51.248;-0.546;2023-05-16T12:08:18;1.71;1.50;
62631;PMS5003;48703;51.248;-0.546;2023-05-16T12:11:20;3.14;2.59;
62631;PMS5003;48703;51.248;-0.546;2023-05-16T12:14:21;2.51;2.26;
62631;PMS5003;48703;51.248;-0.546;2023-05-16T12:17:22;1.60;1.40;
62631;PMS5003;48703;51.248;-0.546;2023-05-16T12:20:24;4.04;2.60;
62631;PMS5003;48703;51.248;-0.546;2023-05-16T12:23:25;1.87;1.87;
62631;PMS5003;48703;51.248;-0.546;2023-05-16T12:26:27;2.69;1.64;
62631;PMS5003;48703;51.248;-0.546;2023-05-16T12:29:30;4.14;3.67;
62631;PMS5003;48703;51.248;-0.546;2023-05-16T12:32:30;4.77;4.21;
62631;PMS5003;48703;51.248;-0.546;2023-05-16T12:35:32;2.61;1.24;
62631;PMS5003;48703;51.248;-0.546;2023-05-16T12:38:33;2.61;2.49;
62631;PMS5003;48703;51.248;-0.546;2023-05-16T12:41:38;2.40;2.30;
62631;PMS5003;48703;51.248;-0.546;2023-05-16T12:44:36;2.50;2.33;
62631;PMS5003;48703;51.248;-0.546;2023-05-16T12:47:38;2.90;2.90;
62631;PMS5003;48703;51.248;-0.546;2023-05-16T12:50:39;2.26;2.17;
62631;PMS5003;48703;51.248;-0.546;2023-05-16T12:53:41;3.29;2.31;
62631;PMS5003;48703;51.248;-0.546;2023-05-16T12:56:43;2.71;2.69;
62631;PMS5003;48703;51.248;-0.546;2023-05-16T12:59:44;2.87;2.46;
62631;PMS5003;48703;51.248;-0.546;2023-05-16T13:02:46;3.90;2.83;
62631;PMS5003;48703;51.248;-0.546;2023-05-16T13:05:47;3.10;2.50;
62631;PMS5003;48703;51.248;-0.546;2023-05-16T13:08:49;3.96;3.36;
62631;PMS5003;48703;51.248;-0.546;2023-05-16T13:11:50;3.60;2.74;
62631;PMS5003;48703;51.248;-0.546;2023-05-16T13:14:52;2.96;2.96;
62631;PMS5003;48703;51.248;-0.546;2023-05-16T13:17:53;4.09;3.60;
62631;PMS5003;48703;51.248;-0.546;2023-05-16T13:20:55;2.49;2.49;
62631;PMS5003;48703;51.248;-0.546;2023-05-16T13:23:56;3.30;3.30;
62631;PMS5003;48703;51.248;-0.546;2023-05-16T13:26:58;2.83;2.36;
62631;PMS5003;48703;51.248;-0.546;2023-05-16T13:29:59;3.07;2.81;
62631;PMS5003;48703;51.248;-0.546;2023-05-16T13:33:01;5.10;4.26;
62631;PMS5003;48703;51.248;-0.546;2023-05-16T13:36:02;2.53;2.36;
62631;PMS5003;48703;51.248;-0.546;2023-05-16T13:39:04;3.81;3.70;
62631;PMS5003;48703;51.248;-0.546;2023-05-16T13:42:05;4.30;3.74;
62631;PMS5003;48703;51.248;-0.546;2023-05-16T13:45:07;3.89;3.89;
62631;PMS5003;48703;51.248;-0.546;2023-05-16T13:48:08;4.80;3.96;
62631;PMS5003;48703;51.248;-0.546;2023-05-16T13:51:10;5.50;3.96;
62631;PMS5003;48703;51.248;-0.546;2023-05-16T13:54:11;3.36;2.96;
62631;PMS5003;48703;51.248;-0.546;2023-05-16T13:57:13;3.59;3.21;
62631;PMS5003;48703;51.248;-0.546;2023-05-16T14:00:14;4.34;3.70;
62631;PMS5003;48703;51.248;-0.546;2023-05-16T14:03:16;4.64;3.84;
62631;PMS5003;48703;51.248;-0.546;2023-05-16T14:06:17;5.79;5.01;
62631;PMS5003;48703;51.248;-0.546;2023-05-16T14:09:19;5.11;3.83;
62631;PMS5003;48703;51.248;-0.546;2023-05-16T14:12:20;4.61;4.24;
62631;PMS5003;48703;51.248;-0.546;2023-05-16T14:15:22;6.60;6.13;
62631;PMS5003;48703;51.248;-0.546;2023-05-16T14:18:23;6.26;5.80;
62631;PMS5003;48703;51.248;-0.546;2023-05-16T14:21:25;6.19;4.47;
62631;PMS5003;48703;51.248;-0.546;2023-05-16T14:24:26;5.59;5.04;
62631;PMS5003;48703;51.248;-0.546;2023-05-16T14:27:28;6.66;5.30;
62631;PMS5003;48703;51.248;-0.546;2023-05-16T14:30:29;5.66;5.66;
62631;PMS5003;48703;51.248;-0.546;2023-05-16T14:33:31;5.46;5.39;
62631;PMS5003;48703;51.248;-0.546;2023-05-16T14:36:32;6.96;5.53;
62631;PMS5003;48703;51.248;-0.546;2023-05-16T14:39:34;7.77;7.54;
62631;PMS5003;48703;51.248;-0.546;2023-05-16T14:42:35;7.49;6.91;
62631;PMS5003;48703;51.248;-0.546;2023-05-16T14:45:37;8.01;6.99;
62631;PMS5003;48703;51.248;-0.546;2023-05-16T14:48:38;7.46;7.17;
62631;PMS5003;48703;51.248;-0.546;2023-05-16T14:51:40;7.49;7.24;
62631;PMS5003;48703;51.248;-0.546;2023-05-16T14:54:41;7.44;6.71;
62631;PMS5003;48703;51.248;-0.546;2023-05-16T14:57:43;6.16;6.16;
62631;PMS5003;48703;51.248;-0.546;2023-05-16T15:00:44;8.26;7.17;
62631;PMS5003;48703;51.248;-0.546;2023-05-16T15:03:46;9.94;8.30;
62631;PMS5003;48703;51.248;-0.546;2023-05-16T15:06:47;9.09;8.53;
62631;PMS5003;48703;51.248;-0.546;2023-05-16T15:09:49;8.61;7.06;
62631;PMS5003;48703;51.248;-0.546;2023-05-16T15:12:51;7.61;6.84;
62631;PMS5003;48703;51.248;-0.546;2023-05-16T15:15:52;8.99;8.14;
62631;PMS5003;48703;51.248;-0.546;2023-05-16T15:18:53;11.04;9.33;
62631;PMS5003;48703;51.248;-0.546;2023-05-16T15:21:54;10.44;9.74;
62631;PMS5003;48703;51.248;-0.546;2023-05-16T15:24:56;13.61;11.50;
62631;PMS5003;48703;51.248;-0.546;2023-05-16T15:27:57;12.76;11.03;
62631;PMS5003;48703;51.248;-0.546;2023-05-16T15:30:59;10.00;9.41;
62631;PMS5003;48703;51.248;-0.546;2023-05-16T15:34:00;10.09;10.09;
62631;PMS5003;48703;51.248;-0.546;2023-05-16T15:37:01;11.20;10.26;
62631;PMS5003;48703;51.248;-0.546;2023-05-16T15:40:03;14.16;11.19;
62631;PMS5003;48703;51.248;-0.546;2023-05-16T15:43:04;13.65;13.26;
62631;PMS5003;48703;51.248;-0.546;2023-05-16T15:46:06;13.79;12.84;
62631;PMS5003;48703;51.248;-0.546;2023-05-16T15:49:07;13.16;11.51;
62631;PMS5003;48703;51.248;-0.546;2023-05-16T15:52:08;11.77;10.26;
62631;PMS5003;48703;51.248;-0.546;2023-05-16T15:55:09;12.77;11.51;
62631;PMS5003;48703;51.248;-0.546;2023-05-16T15:58:11;11.74;10.80;
62631;PMS5003;48703;51.248;-0.546;2023-05-16T16:01:12;13.21;12.16;
62631;PMS5003;48703;51.248;-0.546;2023-05-16T16:04:14;12.51;11.21;
62631;PMS5003;48703;51.248;-0.546;2023-05-16T16:07:16;15.71;13.47;
62631;PMS5003;48703;51.248;-0.546;2023-05-16T16:10:17;13.96;11.59;
62631;PMS5003;48703;51.248;-0.546;2023-05-16T16:13:19;13.14;12.29;
62631;PMS5003;48703;51.248;-0.546;2023-05-16T16:16:20;13.91;11.13;
62631;PMS5003;48703;51.248;-0.546;2023-05-16T16:19:21;13.93;12.40;
62631;PMS5003;48703;51.248;-0.546;2023-05-16T16:22:23;13.43;12.13;
62631;PMS5003;48703;51.248;-0.546;2023-05-16T16:25:24;13.24;12.67;
62631;PMS5003;48703;51.248;-0.546;2023-05-16T16:28:26;17.70;15.03;
62631;PMS5003;48703;51.248;-0.546;2023-05-16T16:31:28;14.94;13.49;
62631;PMS5003;48703;51.248;-0.546;2023-05-16T16:34:29;16.20;15.07;
62631;PMS5003;48703;51.248;-0.546;2023-05-16T16:37:31;15.63;14.53;
62631;PMS5003;48703;51.248;-0.546;2023-05-16T16:40:32;15.90;14.50;
62631;PMS5003;48703;51.248;-0.546;2023-05-16T16:43:33;15.36;14.34;
62631;PMS5003;48703;51.248;-0.546;2023-05-16T16:46:34;14.41;13.09;
62631;PMS5003;48703;51.248;-0.546;2023-05-16T16:49:35;15.30;13.77;
62631;PMS5003;48703;51.248;-0.546;2023-05-16T16:52:37;15.20;14.40;
62631;PMS5003;48703;51.248;-0.546;2023-05-16T16:55:38;14.51;13.40;
62631;PMS5003;48703;51.248;-0.546;2023-05-16T16:58:40;13.46;12.27;
62631;PMS5003;48703;51.248;-0.546;2023-05-16T17:01:41;13.74;13.73;
62631;PMS5003;48703;51.248;-0.546;2023-05-16T17:04:43;15.81;14.36;
62631;PMS5003;48703;51.248;-0.546;2023-05-16T17:07:44;16.19;14.30;
62631;PMS5003;48703;51.248;-0.546;2023-05-16T17:10:46;14.39;13.36;
62631;PMS5003;48703;51.248;-0.546;2023-05-16T17:13:47;14.90;13.91;
62631;PMS5003;48703;51.248;-0.546;2023-05-16T17:16:49;17.14;14.36;
62631;PMS5003;48703;51.248;-0.546;2023-05-16T17:19:50;16.51;13.97;
62631;PMS5003;48703;51.248;-0.546;2023-05-16T17:22:52;15.14;13.00;
62631;PMS5003;48703;51.248;-0.546;2023-05-16T17:25:54;18.66;15.90;
62631;PMS5003;48703;51.248;-0.546;2023-05-16T17:28:56;18.43;16.76;
62631;PMS5003;48703;51.248;-0.546;2023-05-16T17:31:57;15.14;14.21;
62631;PMS5003;48703;51.248;-0.546;2023-05-16T17:34:58;16.73;14.96;
62631;PMS5003;48703;51.248;-0.546;2023-05-16T17:37:59;16.23;14.76;
62631;PMS5003;48703;51.248;-0.546;2023-05-16T17:41:01;16.14;15.14;
62631;PMS5003;48703;51.248;-0.546;2023-05-16T17:44:02;17.70;15.71;
62631;PMS5003;48703;51.248;-0.546;2023-05-16T17:47:03;16.66;15.43;
62631;PMS5003;48703;51.248;-0.546;2023-05-16T17:50:05;18.30;14.97;
62631;PMS5003;48703;51.248;-0.546;2023-05-16T17:53:06;15.83;15.33;
62631;PMS5003;48703;51.248;-0.546;2023-05-16T17:56:08;17.61;15.97;
62631;PMS5003;48703;51.248;-0.546;2023-05-16T17:59:09;18.77;17.88;
62631;PMS5003;48703;51.248;-0.546;2023-05-16T18:02:10;18.81;16.03;
62631;PMS5003;48703;51.248;-0.546;2023-05-16T18:05:12;17.30;15.97;
62631;PMS5003;48703;51.248;-0.546;2023-05-16T18:08:13;15.80;15.23;
62631;PMS5003;48703;51.248;-0.546;2023-05-16T18:11:15;18.32;16.41;
62631;PMS5003;48703;51.248;-0.546;2023-05-16T18:14:16;16.10;15.20;
62631;PMS5003;48703;51.248;-0.546;2023-05-16T18:17:18;22.24;19.43;
62631;PMS5003;48703;51.248;-0.546;2023-05-16T18:20:19;18.07;15.73;
62631;PMS5003;48703;51.248;-0.546;2023-05-16T18:23:20;16.86;16.30;
62631;PMS5003;48703;51.248;-0.546;2023-05-16T18:26:22;20.83;17.23;